sensor_id;sensor_type;location;lat;lon;timestamp;pressure;altitude;pressure_sealevel;temperature;humidity
34031;BME280;20319;28.466;-16.274;2022-10-04T00:01:30;100374.09;;;25.82;54.98
34031;BME280;20319;28.466;-16.274;2022-10-04T00:04:15;100372.31;;;25.88;55.43
34031;BME280;20319;28.466;-16.274;2022-10-04T00:06:50;100364.09;;;25.88;55.15
34031;BME280;20319;28.466;-16.274;2022-10-04T00:09:24;100363.59;;;25.91;55.04
34031;BME280;20319;28.466;-16.274;2022-10-04T00:11:53;100362.03;;;25.95;55.39
34031;BME280;20319;28.466;-16.274;2022-10-04T00:14:36;100354.63;;;25.95;55.24
34031;BME280;20319;28.466;-16.274;2022-10-04T00:17:09;100357.72;;;25.99;55.44
34031;BME280;20319;28.466;-16.274;2022-10-04T00:19:44;100339.56;;;25.86;55.04
34031;BME280;20319;28.466;-16.274;2022-10-04T00:22:28;100357.72;;;25.99;55.53
34031;BME280;20319;28.466;-16.274;2022-10-04T00:25:14;100343.53;;;26.02;55.64
34031;BME280;20319;28.466;-16.274;2022-10-04T00:28:44;100344.81;;;25.99;55.99
34031;BME280;20319;28.466;-16.274;2022-10-04T00:31:20;100340.19;;;26.00;56.06
34031;BME280;20319;28.466;-16.274;2022-10-04T00:34:49;100333.44;;;25.96;55.75
34031;BME280;20319;28.466;-16.274;2022-10-04T00:36:45;100330.63;;;25.91;56.39
34031;BME280;20319;28.466;-16.274;2022-10-04T00:42:03;100332.28;;;25.92;55.86
34031;BME280;20319;28.466;-16.274;2022-10-04T00:45:25;100326.53;;;25.93;55.77
34031;BME280;20319;28.466;-16.274;2022-10-04T00:48:02;100323.56;;;25.95;55.65
34031;BME280;20319;28.466;-16.274;2022-10-04T00:50:56;100313.91;;;25.92;55.33
34031;BME280;20319;28.466;-16.274;2022-10-04T00:53:48;100321.28;;;25.92;55.72
34031;BME280;20319;28.466;-16.274;2022-10-04T00:59:49;100311.47;;;25.96;56.37
34031;BME280;20319;28.466;-16.274;2022-10-04T01:02:59;100311.16;;;25.92;56.17
34031;BME280;20319;28.466;-16.274;2022-10-04T01:05:41;100309.22;;;25.93;55.64
34031;BME280;20319;28.466;-16.274;2022-10-04T01:08:38;100314.94;;;25.91;55.76
34031;BME280;20319;28.466;-16.274;2022-10-04T01:14:20;100300.91;;;25.76;56.04
34031;BME280;20319;28.466;-16.274;2022-10-04T01:16:51;100312.81;;;25.82;55.50
34031;BME280;20319;28.466;-16.274;2022-10-04T01:22:10;100312.00;;;25.81;56.60
34031;BME280;20319;28.466;-16.274;2022-10-04T01:24:44;100307.69;;;25.85;56.72
34031;BME280;20319;28.466;-16.274;2022-10-04T01:27:33;100303.03;;;25.86;56.68
34031;BME280;20319;28.466;-16.274;2022-10-04T01:30:11;100293.69;;;25.87;56.75
34031;BME280;20319;28.466;-16.274;2022-10-04T01:32:40;100279.13;;;25.86;56.88
34031;BME280;20319;28.466;-16.274;2022-10-04T01:35:19;100278.69;;;25.78;57.63
34031;BME280;20319;28.466;-16.274;2022-10-04T01:37:44;100293.59;;;25.82;57.29
34031;BME280;20319;28.466;-16.274;2022-10-04T01:40:12;100280.56;;;25.77;57.22
34031;BME280;20319;28.466;-16.274;2022-10-04T01:42:54;100275.94;;;25.78;57.06
34031;BME280;20319;28.466;-16.274;2022-10-04T01:45:50;100274.72;;;25.74;55.95
34031;BME280;20319;28.466;-16.274;2022-10-04T01:48:21;100264.34;;;25.64;54.88
34031;BME280;20319;28.466;-16.274;2022-10-04T01:51:12;100264.84;;;25.61;54.34
34031;BME280;20319;28.466;-16.274;2022-10-04T01:54:05;100253.25;;;25.59;53.45
34031;BME280;20319;28.466;-16.274;2022-10-04T01:56:44;100240.28;;;25.43;53.48
34031;BME280;20319;28.466;-16.274;2022-10-04T01:59:18;100256.59;;;25.50;52.55
34031;BME280;20319;28.466;-16.274;2022-10-04T02:05:11;100248.03;;;25.46;52.20
34031;BME280;20319;28.466;-16.274;2022-10-04T02:07:40;100250.19;;;25.44;51.98
34031;BME280;20319;28.466;-16.274;2022-10-04T02:10:16;100243.34;;;25.47;52.09
34031;BME280;20319;28.466;-16.274;2022-10-04T02:12:46;100242.06;;;25.49;51.41
34031;BME280;20319;28.466;-16.274;2022-10-04T02:15:42;100241.34;;;25.54;52.36
34031;BME280;20319;28.466;-16.274;2022-10-04T02:18:12;100245.00;;;25.59;52.50
34031;BME280;20319;28.466;-16.274;2022-10-04T02:20:40;100217.47;;;25.54;53.05
34031;BME280;20319;28.466;-16.274;2022-10-04T02:23:16;100240.72;;;25.63;52.84
34031;BME280;20319;28.466;-16.274;2022-10-04T02:25:44;100225.47;;;25.56;52.63
34031;BME280;20319;28.466;-16.274;2022-10-04T02:28:12;100228.31;;;25.61;53.18
34031;BME280;20319;28.466;-16.274;2022-10-04T02:30:51;100222.09;;;25.65;53.71
34031;BME280;20319;28.466;-16.274;2022-10-04T02:33:43;100224.13;;;25.70;52.98
34031;BME280;20319;28.466;-16.274;2022-10-04T02:36:12;100224.59;;;25.67;52.60
34031;BME280;20319;28.466;-16.274;2022-10-04T02:38:47;100216.59;;;25.65;52.40
34031;BME280;20319;28.466;-16.274;2022-10-04T02:41:45;100210.75;;;25.62;52.00
34031;BME280;20319;28.466;-16.274;2022-10-04T02:44:40;100223.88;;;25.71;52.46
34031;BME280;20319;28.466;-16.274;2022-10-04T02:47:15;100204.19;;;25.63;52.21
34031;BME280;20319;28.466;-16.274;2022-10-04T02:49:53;100224.47;;;25.73;51.82
34031;BME280;20319;28.466;-16.274;2022-10-04T02:52:33;100218.13;;;25.73;52.66
34031;BME280;20319;28.466;-16.274;2022-10-04T02:55:39;100215.97;;;25.75;52.42
34031;BME280;20319;28.466;-16.274;2022-10-04T02:58:09;100196.66;;;25.70;53.12
34031;BME280;20319;28.466;-16.274;2022-10-04T03:00:51;100203.78;;;25.71;52.92
34031;BME280;20319;28.466;-16.274;2022-10-04T03:03:34;100202.63;;;25.67;52.70
34031;BME280;20319;28.466;-16.274;2022-10-04T03:06:15;100207.53;;;25.65;51.82
34031;BME280;20319;28.466;-16.274;2022-10-04T03:08:50;100195.94;;;25.63;51.27
34031;BME280;20319;28.466;-16.274;2022-10-04T03:11:22;100174.81;;;25.52;50.28
34031;BME280;20319;28.466;-16.274;2022-10-04T03:13:55;100187.25;;;25.54;50.75
34031;BME280;20319;28.466;-16.274;2022-10-04T03:16:21;100174.34;;;25.55;50.54
34031;BME280;20319;28.466;-16.274;2022-10-04T03:18:52;100166.69;;;25.57;50.25
34031;BME280;20319;28.466;-16.274;2022-10-04T03:21:26;100171.34;;;25.56;50.20
34031;BME280;20319;28.466;-16.274;2022-10-04T03:23:57;100166.69;;;25.57;49.72
34031;BME280;20319;28.466;-16.274;2022-10-04T03:29:05;100166.22;;;25.60;49.12
34031;BME280;20319;28.466;-16.274;2022-10-04T03:31:41;100173.41;;;25.61;48.80
34031;BME280;20319;28.466;-16.274;2022-10-04T03:34:25;100182.19;;;25.63;49.04
34031;BME280;20319;28.466;-16.274;2022-10-04T03:37:01;100180.06;;;25.65;48.56
34031;BME280;20319;28.466;-16.274;2022-10-04T03:39:35;100183.41;;;25.67;48.49
34031;BME280;20319;28.466;-16.274;2022-10-04T03:44:54;100170.44;;;25.51;49.63
34031;BME280;20319;28.466;-16.274;2022-10-04T03:47:30;100191.28;;;25.63;48.94
34031;BME280;20319;28.466;-16.274;2022-10-04T03:50:18;100196.41;;;25.60;48.87
34031;BME280;20319;28.466;-16.274;2022-10-04T03:52:52;100187.59;;;25.58;48.90
34031;BME280;20319;28.466;-16.274;2022-10-04T03:55:30;100182.94;;;25.58;49.27
34031;BME280;20319;28.466;-16.274;2022-10-04T03:58:13;100190.44;;;25.63;50.27
34031;BME280;20319;28.466;-16.274;2022-10-04T04:01:02;100188.28;;;25.65;49.93
34031;BME280;20319;28.466;-16.274;2022-10-04T04:06:51;100179.56;;;25.68;50.07
34031;BME280;20319;28.466;-16.274;2022-10-04T04:10:09;100186.16;;;25.67;50.18
34031;BME280;20319;28.466;-16.274;2022-10-04T04:12:50;100167.97;;;25.66;50.81
34031;BME280;20319;28.466;-16.274;2022-10-04T04:15:26;100177.41;;;25.70;50.22
34031;BME280;20319;28.466;-16.274;2022-10-04T04:18:16;100169.66;;;25.67;50.28
34031;BME280;20319;28.466;-16.274;2022-10-04T04:20:45;100177.91;;;25.67;50.85
34031;BME280;20319;28.466;-16.274;2022-10-04T04:23:42;100175.16;;;25.67;50.78
34031;BME280;20319;28.466;-16.274;2022-10-04T04:26:21;100177.41;;;25.70;51.24
34031;BME280;20319;28.466;-16.274;2022-10-04T04:32:01;100183.25;;;25.73;50.38
34031;BME280;20319;28.466;-16.274;2022-10-04T04:34:33;100174.44;;;25.71;50.23
34031;BME280;20319;28.466;-16.274;2022-10-04T04:37:10;100172.66;;;25.65;51.29
34031;BME280;20319;28.466;-16.274;2022-10-04T04:39:37;100180.41;;;25.68;50.86
34031;BME280;20319;28.466;-16.274;2022-10-04T04:42:32;100180.66;;;25.67;51.14
34031;BME280;20319;28.466;-16.274;2022-10-04T04:48:12;100177.66;;;25.68;50.54
34031;BME280;20319;28.466;-16.274;2022-10-04T04:50:52;100179.44;;;25.63;50.43
34031;BME280;20319;28.466;-16.274;2022-10-04T04:53:28;100176.34;;;25.59;49.89
34031;BME280;20319;28.466;-16.274;2022-10-04T04:56:03;100176.94;;;25.61;49.72
34031;BME280;20319;28.466;-16.274;2022-10-04T04:58:36;100163.97;;;25.57;50.64
34031;BME280;20319;28.466;-16.274;2022-10-04T05:01:28;100180.03;;;25.76;50.18
34031;BME280;20319;28.466;-16.274;2022-10-04T05:04:19;100179.22;;;25.64;49.14
34031;BME280;20319;28.466;-16.274;2022-10-04T05:07:11;100179.09;;;25.59;48.28
34031;BME280;20319;28.466;-16.274;2022-10-04T05:09:40;100186.00;;;25.73;48.50
34031;BME280;20319;28.466;-16.274;2022-10-04T05:12:18;100179.81;;;25.66;48.02
34031;BME280;20319;28.466;-16.274;2022-10-04T05:14:52;100152.97;;;25.57;47.50
34031;BME280;20319;28.466;-16.274;2022-10-04T05:17:32;100175.97;;;25.67;47.79
34031;BME280;20319;28.466;-16.274;2022-10-04T05:20:03;100177.41;;;25.70;47.33
34031;BME280;20319;28.466;-16.274;2022-10-04T05:22:35;100161.31;;;25.62;47.74
34031;BME280;20319;28.466;-16.274;2022-10-04T05:25:24;100165.72;;;25.63;47.02
34031;BME280;20319;28.466;-16.274;2022-10-04T05:27:56;100180.31;;;25.63;47.05
34031;BME280;20319;28.466;-16.274;2022-10-04T05:33:25;100176.72;;;25.63;46.94
34031;BME280;20319;28.466;-16.274;2022-10-04T05:39:21;100194.69;;;25.82;47.23
34031;BME280;20319;28.466;-16.274;2022-10-04T05:42:19;100192.56;;;25.72;47.11
34031;BME280;20319;28.466;-16.274;2022-10-04T05:44:53;100197.81;;;25.74;46.88
34031;BME280;20319;28.466;-16.274;2022-10-04T05:47:26;100195.56;;;25.71;47.38
34031;BME280;20319;28.466;-16.274;2022-10-04T05:49:56;100206.16;;;25.79;48.12
34031;BME280;20319;28.466;-16.274;2022-10-04T05:52:37;100193.75;;;25.76;47.77
34031;BME280;20319;28.466;-16.274;2022-10-04T05:55:34;100197.31;;;25.77;48.21
34031;BME280;20319;28.466;-16.274;2022-10-04T06:05:55;100226.03;;;25.58;47.53
34031;BME280;20319;28.466;-16.274;2022-10-04T06:08:28;100222.72;;;25.56;47.71
34031;BME280;20319;28.466;-16.274;2022-10-04T06:14:47;100224.75;;;25.49;46.78
34031;BME280;20319;28.466;-16.274;2022-10-04T06:20:24;100222.00;;;25.49;46.46
34031;BME280;20319;28.466;-16.274;2022-10-04T06:22:47;100235.25;;;25.52;46.67
34031;BME280;20319;28.466;-16.274;2022-10-04T06:39:13;100235.44;;;25.73;45.34
34031;BME280;20319;28.466;-16.274;2022-10-04T06:41:44;100244.13;;;25.82;45.50
34031;BME280;20319;28.466;-16.274;2022-10-04T06:53:19;100225.13;;;25.92;44.04
34031;BME280;20319;28.466;-16.274;2022-10-04T06:58:43;100242.41;;;26.04;43.40
34031;BME280;20319;28.466;-16.274;2022-10-04T07:01:34;100238.13;;;26.08;43.70
34031;BME280;20319;28.466;-16.274;2022-10-04T07:09:58;100246.38;;;26.08;43.50
34031;BME280;20319;28.466;-16.274;2022-10-04T07:16:09;100250.81;;;25.97;44.70
34031;BME280;20319;28.466;-16.274;2022-10-04T07:18:51;100258.19;;;25.97;46.56
34031;BME280;20319;28.466;-16.274;2022-10-04T07:21:19;100258.19;;;25.97;47.68
34031;BME280;20319;28.466;-16.274;2022-10-04T07:23:58;100257.00;;;25.93;49.79
34031;BME280;20319;28.466;-16.274;2022-10-04T07:29:05;100255.69;;;25.95;50.64
34031;BME280;20319;28.466;-16.274;2022-10-04T07:32:10;100262.84;;;25.96;51.63
34031;BME280;20319;28.466;-16.274;2022-10-04T07:34:48;100257.59;;;25.95;52.95
34031;BME280;20319;28.466;-16.274;2022-10-04T07:37:16;100262.75;;;26.03;53.14
34031;BME280;20319;28.466;-16.274;2022-10-04T07:39:58;100268.25;;;26.03;53.38
34031;BME280;20319;28.466;-16.274;2022-10-04T07:42:34;100257.25;;;26.03;54.03
34031;BME280;20319;28.466;-16.274;2022-10-04T07:47:39;100282.09;;;26.08;55.27
34031;BME280;20319;28.466;-16.274;2022-10-04T07:50:28;100274.09;;;26.06;55.37
34031;BME280;20319;28.466;-16.274;2022-10-04T07:53:06;100283.81;;;26.26;54.32
34031;BME280;20319;28.466;-16.274;2022-10-04T07:55:51;100281.22;;;26.19;55.36
34031;BME280;20319;28.466;-16.274;2022-10-04T07:58:51;100283.97;;;26.19;55.35
34031;BME280;20319;28.466;-16.274;2022-10-04T08:01:32;100278.47;;;26.19;55.88
34031;BME280;20319;28.466;-16.274;2022-10-04T08:07:02;100266.88;;;26.17;55.84
34031;BME280;20319;28.466;-16.274;2022-10-04T08:13:01;100275.81;;;26.24;55.79
34031;BME280;20319;28.466;-16.274;2022-10-04T08:15:32;100266.72;;;26.24;56.33
34031;BME280;20319;28.466;-16.274;2022-10-04T08:18:28;100278.56;;;26.24;56.53
34031;BME280;20319;28.466;-16.274;2022-10-04T08:21:08;100285.25;;;26.28;56.32
34031;BME280;20319;28.466;-16.274;2022-10-04T08:38:42;100337.91;;;26.48;57.14
34031;BME280;20319;28.466;-16.274;2022-10-04T08:44:03;100356.84;;;26.61;57.03
34031;BME280;20319;28.466;-16.274;2022-10-04T08:56:00;100367.69;;;26.79;57.02
34031;BME280;20319;28.466;-16.274;2022-10-04T08:58:49;100372.69;;;26.82;56.75
34031;BME280;20319;28.466;-16.274;2022-10-04T09:07:59;100388.81;;;26.90;56.53
34031;BME280;20319;28.466;-16.274;2022-10-04T09:16:29;100397.16;;;26.95;56.58
34031;BME280;20319;28.466;-16.274;2022-10-04T09:27:14;100396.78;;;27.03;56.01
34031;BME280;20319;28.466;-16.274;2022-10-04T09:29:58;100396.63;;;27.10;56.01
34031;BME280;20319;28.466;-16.274;2022-10-04T09:51:57;100441.50;;;27.38;59.36
34031;BME280;20319;28.466;-16.274;2022-10-04T10:08:47;100440.00;;;27.81;59.13
34031;BME280;20319;28.466;-16.274;2022-10-04T10:26:31;100462.00;;;27.92;60.42
34031;BME280;20319;28.466;-16.274;2022-10-04T10:43:05;100467.66;;;28.57;58.89
34031;BME280;20319;28.466;-16.274;2022-10-04T10:46:15;100458.22;;;28.53;58.79
34031;BME280;20319;28.466;-16.274;2022-10-04T10:48:55;100467.41;;;28.58;58.48
34031;BME280;20319;28.466;-16.274;2022-10-04T10:54:07;100456.69;;;28.62;58.00
34031;BME280;20319;28.466;-16.274;2022-10-04T10:57:04;100449.00;;;28.64;58.31
34031;BME280;20319;28.466;-16.274;2022-10-04T11:20:01;100428.47;;;29.03;57.19
34031;BME280;20319;28.466;-16.274;2022-10-04T12:00:00;100406.75;;;29.70;53.84
34031;BME280;20319;28.466;-16.274;2022-10-04T12:08:03;100405.41;;;29.72;52.83
34031;BME280;20319;28.466;-16.274;2022-10-04T12:10:36;100409.28;;;29.71;53.08
34031;BME280;20319;28.466;-16.274;2022-10-04T12:29:53;100411.88;;;29.03;52.43
34031;BME280;20319;28.466;-16.274;2022-10-04T12:32:57;100403.53;;;28.93;53.33
34031;BME280;20319;28.466;-16.274;2022-10-04T12:44:29;100396.53;;;29.07;53.55
34031;BME280;20319;28.466;-16.274;2022-10-04T13:01:16;100374.75;;;29.42;44.99
34031;BME280;20319;28.466;-16.274;2022-10-04T13:09:12;100370.16;;;29.58;43.84
34031;BME280;20319;28.466;-16.274;2022-10-04T13:15:12;100369.44;;;29.67;42.67
34031;BME280;20319;28.466;-16.274;2022-10-04T13:26:02;100365.06;;;29.76;42.39
34031;BME280;20319;28.466;-16.274;2022-10-04T13:31:31;100335.69;;;30.12;41.54
34031;BME280;20319;28.466;-16.274;2022-10-04T13:34:31;100342.84;;;30.08;42.12
34031;BME280;20319;28.466;-16.274;2022-10-04T13:37:11;100339.84;;;30.14;42.92
34031;BME280;20319;28.466;-16.274;2022-10-04T13:51:42;100334.84;;;30.11;41.64
34031;BME280;20319;28.466;-16.274;2022-10-04T13:57:29;100324.28;;;29.98;41.55
34031;BME280;20319;28.466;-16.274;2022-10-04T14:00:06;100323.44;;;29.93;41.31
34031;BME280;20319;28.466;-16.274;2022-10-04T14:05:26;100317.13;;;30.02;41.77
34031;BME280;20319;28.466;-16.274;2022-10-04T14:13:53;100301.66;;;30.11;40.96
34031;BME280;20319;28.466;-16.274;2022-10-04T14:36:59;100295.66;;;30.24;38.66
34031;BME280;20319;28.466;-16.274;2022-10-04T14:39:46;100243.25;;;29.93;38.86
34031;BME280;20319;28.466;-16.274;2022-10-04T14:50:59;100277.34;;;30.18;38.63
34031;BME280;20319;28.466;-16.274;2022-10-04T14:53:35;100288.78;;;30.27;38.94
34031;BME280;20319;28.466;-16.274;2022-10-04T14:59:06;100291.81;;;30.36;38.74
34031;BME280;20319;28.466;-16.274;2022-10-04T15:05:06;100283.78;;;30.34;38.57
34031;BME280;20319;28.466;-16.274;2022-10-04T15:07:42;100272.16;;;30.32;38.28
34031;BME280;20319;28.466;-16.274;2022-10-04T15:13:02;100280.13;;;30.18;38.95
34031;BME280;20319;28.466;-16.274;2022-10-04T15:23:52;100295.00;;;30.02;38.77
34031;BME280;20319;28.466;-16.274;2022-10-04T15:34:20;100277.31;;;30.08;38.90
34031;BME280;20319;28.466;-16.274;2022-10-04T15:48:53;100254.09;;;30.09;39.02
34031;BME280;20319;28.466;-16.274;2022-10-04T15:57:03;100243.78;;;29.90;39.20
34031;BME280;20319;28.466;-16.274;2022-10-04T16:08:47;100254.84;;;29.48;39.36
34031;BME280;20319;28.466;-16.274;2022-10-04T16:11:46;100255.97;;;29.47;39.45
34031;BME280;20319;28.466;-16.274;2022-10-04T16:14:34;100256.25;;;29.51;39.35
34031;BME280;20319;28.466;-16.274;2022-10-04T16:17:22;100262.06;;;29.54;38.71
34031;BME280;20319;28.466;-16.274;2022-10-04T16:22:34;100271.50;;;29.58;38.41
34031;BME280;20319;28.466;-16.274;2022-10-04T16:30:27;100277.06;;;29.63;39.11
34031;BME280;20319;28.466;-16.274;2022-10-04T16:54:15;100294.66;;;29.47;38.32
34031;BME280;20319;28.466;-16.274;2022-10-04T17:07:40;100305.31;;;29.34;39.04
34031;BME280;20319;28.466;-16.274;2022-10-04T17:16:29;100311.59;;;29.24;38.46
34031;BME280;20319;28.466;-16.274;2022-10-04T17:24:51;100317.72;;;29.00;38.86
34031;BME280;20319;28.466;-16.274;2022-10-04T17:27:45;100306.88;;;28.93;38.42
34031;BME280;20319;28.466;-16.274;2022-10-04T17:32:54;100314.28;;;28.87;39.38
34031;BME280;20319;28.466;-16.274;2022-10-04T17:46:22;100319.22;;;28.85;39.24
34031;BME280;20319;28.466;-16.274;2022-10-04T17:52:03;100317.19;;;28.76;39.50
34031;BME280;20319;28.466;-16.274;2022-10-04T17:54:58;100309.09;;;28.64;39.77
34031;BME280;20319;28.466;-16.274;2022-10-04T17:57:52;100316.84;;;28.67;39.29
34031;BME280;20319;28.466;-16.274;2022-10-04T18:00:26;100337.56;;;28.70;39.53
34031;BME280;20319;28.466;-16.274;2022-10-04T18:03:16;100328.47;;;28.69;39.14
34031;BME280;20319;28.466;-16.274;2022-10-04T18:05:51;100337.56;;;28.70;39.55
34031;BME280;20319;28.466;-16.274;2022-10-04T18:08:40;100332.63;;;28.72;39.38
34031;BME280;20319;28.466;-16.274;2022-10-04T18:14:01;100342.00;;;28.71;38.73
34031;BME280;20319;28.466;-16.274;2022-10-04T18:24:42;100350.50;;;28.64;39.14
34031;BME280;20319;28.466;-16.274;2022-10-04T18:27:28;100347.34;;;28.56;39.06
34031;BME280;20319;28.466;-16.274;2022-10-04T18:34:58;100350.03;;;28.51;39.37
34031;BME280;20319;28.466;-16.274;2022-10-04T18:37:33;100359.16;;;28.51;39.69
34031;BME280;20319;28.466;-16.274;2022-10-04T18:42:56;100357.28;;;28.57;39.98
34031;BME280;20319;28.466;-16.274;2022-10-04T18:45:27;100358.69;;;28.59;39.82
34031;BME280;20319;28.466;-16.274;2022-10-04T18:47:55;100363.97;;;28.61;40.11
34031;BME280;20319;28.466;-16.274;2022-10-04T18:50:43;100355.69;;;28.61;39.94
34031;BME280;20319;28.466;-16.274;2022-10-04T18:53:25;100360.56;;;28.54;40.33
34031;BME280;20319;28.466;-16.274;2022-10-04T18:56:02;100371.91;;;28.57;40.15
34031;BME280;20319;28.466;-16.274;2022-10-04T19:08:43;100365.63;;;28.40;40.65
34031;BME280;20319;28.466;-16.274;2022-10-04T19:10:45;100370.47;;;28.33;39.61
34031;BME280;20319;28.466;-16.274;2022-10-04T19:13:31;100374.00;;;28.29;39.64
34031;BME280;20319;28.466;-16.274;2022-10-04T19:16:25;100366.25;;;28.26;39.24
34031;BME280;20319;28.466;-16.274;2022-10-04T19:27:51;100376.91;;;28.39;39.78
34031;BME280;20319;28.466;-16.274;2022-10-04T19:30:24;100376.72;;;28.45;39.25
34031;BME280;20319;28.466;-16.274;2022-10-04T19:37:56;100379.06;;;28.53;39.59
34031;BME280;20319;28.466;-16.274;2022-10-04T19:43:44;100392.78;;;28.48;39.36
34031;BME280;20319;28.466;-16.274;2022-10-04T19:46:23;100398.53;;;28.47;39.44
34031;BME280;20319;28.466;-16.274;2022-10-04T19:48:53;100404.63;;;28.49;39.68
34031;BME280;20319;28.466;-16.274;2022-10-04T19:51:38;100414.00;;;28.48;39.96
34031;BME280;20319;28.466;-16.274;2022-10-04T19:54:13;100422.88;;;28.50;39.72
34031;BME280;20319;28.466;-16.274;2022-10-04T19:56:47;100420.38;;;28.48;39.85
34031;BME280;20319;28.466;-16.274;2022-10-04T19:59:40;100421.19;;;28.49;39.57
34031;BME280;20319;28.466;-16.274;2022-10-04T20:02:08;100429.78;;;28.52;39.86
34031;BME280;20319;28.466;-16.274;2022-10-04T20:04:36;100428.13;;;28.51;39.82
34031;BME280;20319;28.466;-16.274;2022-10-04T20:07:26;100427.19;;;28.46;39.64
34031;BME280;20319;28.466;-16.274;2022-10-04T20:12:37;100436.16;;;28.53;39.99
34031;BME280;20319;28.466;-16.274;2022-10-04T20:17:41;100436.16;;;28.53;40.04
34031;BME280;20319;28.466;-16.274;2022-10-04T20:20:07;100427.81;;;28.48;40.26
34031;BME280;20319;28.466;-16.274;2022-10-04T20:30:58;100461.50;;;28.50;40.87
34031;BME280;20319;28.466;-16.274;2022-10-04T20:36:07;100451.41;;;28.39;41.62
34031;BME280;20319;28.466;-16.274;2022-10-04T20:38:43;100476.16;;;28.50;41.60
34031;BME280;20319;28.466;-16.274;2022-10-04T20:41:41;100478.47;;;28.42;41.24
34031;BME280;20319;28.466;-16.274;2022-10-04T20:44:43;100488.31;;;28.38;41.35
34031;BME280;20319;28.466;-16.274;2022-10-04T20:52:47;100499.34;;;28.38;41.30
34031;BME280;20319;28.466;-16.274;2022-10-04T20:55:40;100512.59;;;28.36;41.49
34031;BME280;20319;28.466;-16.274;2022-10-04T20:58:27;100506.22;;;28.35;41.44
34031;BME280;20319;28.466;-16.274;2022-10-04T21:00:59;100508.84;;;28.25;41.42
34031;BME280;20319;28.466;-16.274;2022-10-04T21:03:31;100509.59;;;28.21;41.42
34031;BME280;20319;28.466;-16.274;2022-10-04T21:06:00;100515.63;;;28.18;41.55
34031;BME280;20319;28.466;-16.274;2022-10-04T21:08:27;100510.59;;;28.15;41.85
34031;BME280;20319;28.466;-16.274;2022-10-04T21:11:01;100502.16;;;28.05;41.77
34031;BME280;20319;28.466;-16.274;2022-10-04T21:13:57;100519.31;;;28.07;41.90
34031;BME280;20319;28.466;-16.274;2022-10-04T21:16:36;100517.06;;;28.04;41.71
34031;BME280;20319;28.466;-16.274;2022-10-04T21:24:57;100507.44;;;28.06;41.98
34031;BME280;20319;28.466;-16.274;2022-10-04T21:27:35;100509.38;;;28.06;42.36
34031;BME280;20319;28.466;-16.274;2022-10-04T21:32:35;100513.28;;;28.10;42.49
34031;BME280;20319;28.466;-16.274;2022-10-04T21:35:03;100508.34;;;28.12;42.59
34031;BME280;20319;28.466;-16.274;2022-10-04T21:37:29;100515.03;;;28.16;42.55
34031;BME280;20319;28.466;-16.274;2022-10-04T21:39:57;100525.25;;;28.15;42.97
34031;BME280;20319;28.466;-16.274;2022-10-04T21:42:23;100533.50;;;28.15;42.93
34031;BME280;20319;28.466;-16.274;2022-10-04T21:44:49;100521.63;;;28.15;43.28
34031;BME280;20319;28.466;-16.274;2022-10-04T21:47:15;100532.41;;;28.16;43.45
34031;BME280;20319;28.466;-16.274;2022-10-04T21:49:40;100534.06;;;28.17;43.54
34031;BME280;20319;28.466;-16.274;2022-10-04T21:52:06;100531.31;;;28.17;43.68
34031;BME280;20319;28.466;-16.274;2022-10-04T21:54:32;100526.91;;;28.16;43.69
34031;BME280;20319;28.466;-16.274;2022-10-04T21:56:58;100529.91;;;28.15;44.35
34031;BME280;20319;28.466;-16.274;2022-10-04T21:59:26;100513.03;;;28.11;44.22
34031;BME280;20319;28.466;-16.274;2022-10-04T22:01:52;100530.66;;;28.10;44.00
34031;BME280;20319;28.466;-16.274;2022-10-04T22:04:18;100522.66;;;28.09;44.42
34031;BME280;20319;28.466;-16.274;2022-10-04T22:06:43;100513.78;;;28.07;44.47
34031;BME280;20319;28.466;-16.274;2022-10-04T22:09:09;100522.66;;;28.09;44.20
34031;BME280;20319;28.466;-16.274;2022-10-04T22:11:35;100512.63;;;28.03;43.86
34031;BME280;20319;28.466;-16.274;2022-10-04T22:14:01;100513.06;;;27.95;43.79
34031;BME280;20319;28.466;-16.274;2022-10-04T22:16:27;100515.72;;;27.90;44.31
34031;BME280;20319;28.466;-16.274;2022-10-04T22:18:53;100514.03;;;27.89;44.60
34031;BME280;20319;28.466;-16.274;2022-10-04T22:21:19;100512.97;;;27.90;44.77
34031;BME280;20319;28.466;-16.274;2022-10-04T22:23:45;100511.88;;;27.91;44.54
34031;BME280;20319;28.466;-16.274;2022-10-04T22:26:16;100511.63;;;27.92;45.01
34031;BME280;20319;28.466;-16.274;2022-10-04T22:28:51;100514.72;;;27.96;45.16
34031;BME280;20319;28.466;-16.274;2022-10-04T22:31:29;100506.44;;;27.96;44.75
34031;BME280;20319;28.466;-16.274;2022-10-04T22:33:57;100513.63;;;27.97;45.24
34031;BME280;20319;28.466;-16.274;2022-10-04T22:36:29;100510.28;;;27.95;45.09
34031;BME280;20319;28.466;-16.274;2022-10-04T22:39:18;100500.84;;;27.91;45.21
34031;BME280;20319;28.466;-16.274;2022-10-04T22:41:59;100503.69;;;27.96;45.51
34031;BME280;20319;28.466;-16.274;2022-10-04T22:47:26;100506.19;;;27.97;45.74
34031;BME280;20319;28.466;-16.274;2022-10-04T22:52:57;100493.16;;;27.93;45.84
34031;BME280;20319;28.466;-16.274;2022-10-04T22:55:33;100496.44;;;27.90;45.94
34031;BME280;20319;28.466;-16.274;2022-10-04T22:58:18;100494.75;;;27.89;45.44
34031;BME280;20319;28.466;-16.274;2022-10-04T23:00:45;100486.84;;;27.81;45.86
34031;BME280;20319;28.466;-16.274;2022-10-04T23:03:29;100497.63;;;27.82;46.12
34031;BME280;20319;28.466;-16.274;2022-10-04T23:06:06;100487.44;;;27.83;45.93
34031;BME280;20319;28.466;-16.274;2022-10-04T23:08:41;100490.19;;;27.83;45.93
34031;BME280;20319;28.466;-16.274;2022-10-04T23:11:10;100473.91;;;27.81;46.14
34031;BME280;20319;28.466;-16.274;2022-10-04T23:13:46;100473.91;;;27.81;45.90